This is the latest recevied weather packets stored in our database for station/object T77NM. If no packets are shown the sender has not sent any weather packets the latest 10 day(s).
| Time | Temp. | Humidity | Pressure | Rain* | Wind** | Luminosity | Snow |
|---|---|---|---|---|---|---|---|
| 1777887027 | 21.11° C | 48% | 1017.5 hPa | 0 mm | - | 805 W/m² | - |
| 1777886126 | 21.11° C | 46% | 1017.5 hPa | 0 mm | - | 671 W/m² | - |
| 1777884323 | 21.11° C | 48% | 1017.6 hPa | 0 mm | - | 745 W/m² | - |
| 1777877106 | 18.89° C | 47% | 1017.1 hPa | 0 mm | - | 364 W/m² | - |
| 1777873552 | 17.22° C | 52% | 1016.8 hPa | 0 mm | - | 98 W/m² | - |
| 1777872651 | 17.22° C | 50% | 1016.6 hPa | 0 mm | - | 83 W/m² | - |
| 1777868137 | 17.22° C | 48% | 1016.3 hPa | 0 mm | - | 18 W/m² | - |
| 1777864532 | 17.22° C | 50% | 1016.2 hPa | 0 mm | - | 0 W/m² | - |
| 1777855517 | 17.78° C | 50% | 1016.6 hPa | 0 mm | - | 0 W/m² | - |
| 1777848307 | 18.33° C | 53% | 1017 hPa | 0 mm | - | 0 W/m² | - |
| 1777847405 | 18.33° C | 52% | 1017.1 hPa | 0 mm | - | 0 W/m² | - |
| 1777846504 | 18.33° C | 52% | 1017.2 hPa | 0 mm | - | 0 W/m² | - |
| 1777839361 | 18.33° C | 50% | 1016.8 hPa | 0 mm | - | 0 W/m² | - |
| 1777837560 | 17.78° C | 50% | 1016.7 hPa | 0 mm | - | 0 W/m² | - |
| 1777834867 | 18.33° C | 46% | 1016.6 hPa | 0 mm | - | 0 W/m² | - |
| 1777833962 | 18.89° C | 46% | 1016.5 hPa | 0 mm | - | 0 W/m² | - |
| 1777830354 | 18.89° C | 46% | 1016.3 hPa | 0 mm | - | 39 W/m² | - |
| 1777829472 | 20° C | 46% | 1016.2 hPa | 0 mm | - | 91 W/m² | - |
| 1777823158 | 21.67° C | 42% | 1016.7 hPa | 0 mm | - | 478 W/m² | - |
| 1777818641 | 22.22° C | 43% | 1017.1 hPa | 0 mm | - | 703 W/m² | - |
| 1777815949 | 23.33° C | 40% | 1017.4 hPa | 0 mm | - | 745 W/m² | - |
| 1777814136 | 22.78° C | 39% | 1017.6 hPa | 0 mm | - | 795 W/m² | - |
| 1777811443 | 22.78° C | 39% | 1018 hPa | 0 mm | - | 744 W/m² | - |
| 1777807825 | 22.22° C | 39% | 1018.2 hPa | 0 mm | - | 872 W/m² | - |
| 1777806021 | 22.22° C | 37% | 1018.5 hPa | 0 mm | - | 1025 W/m² | - |
* Rain latest hour (hover to see other rain measurements)
** Current wind speed in m/s (hover to see current wind gust speed)